sensor_id;sensor_type;location;lat;lon;timestamp;pressure;altitude;pressure_sealevel;temperature;humidity
75747;BME280;64363;52.198;21.020;2022-10-16T00:01:36;100487.66;;;14.44;69.53
75747;BME280;64363;52.198;21.020;2022-10-16T00:04:02;100487.66;;;14.44;69.14
75747;BME280;64363;52.198;21.020;2022-10-16T00:06:29;100486.69;;;14.45;68.89
75747;BME280;64363;52.198;21.020;2022-10-16T00:08:55;100484.91;;;14.45;69.15
75747;BME280;64363;52.198;21.020;2022-10-16T00:11:23;100484.03;;;14.45;69.14
75747;BME280;64363;52.198;21.020;2022-10-16T00:13:53;100486.59;;;14.48;69.21
75747;BME280;64363;52.198;21.020;2022-10-16T00:16:19;100482.22;;;14.45;68.69
75747;BME280;64363;52.198;21.020;2022-10-16T00:18:45;100479.63;;;14.44;68.79
75747;BME280;64363;52.198;21.020;2022-10-16T00:21:18;100478.75;;;14.43;68.61
75747;BME280;64363;52.198;21.020;2022-10-16T00:23:44;100483.16;;;14.44;68.69
75747;BME280;64363;52.198;21.020;2022-10-16T00:26:17;100491.19;;;14.44;68.87
75747;BME280;64363;52.198;21.020;2022-10-16T00:28:46;100489.47;;;14.43;68.66
75747;BME280;64363;52.198;21.020;2022-10-16T00:31:12;100489.47;;;14.43;68.96
75747;BME280;64363;52.198;21.020;2022-10-16T00:33:39;100495.72;;;14.44;68.93
75747;BME280;64363;52.198;21.020;2022-10-16T00:36:07;100484.13;;;14.43;69.25
75747;BME280;64363;52.198;21.020;2022-10-16T00:38:35;100480.69;;;14.40;70.20
75747;BME280;64363;52.198;21.020;2022-10-16T00:41:01;100484.47;;;14.36;71.39
75747;BME280;64363;52.198;21.020;2022-10-16T00:48:45;100494.75;;;14.25;71.63
75747;BME280;64363;52.198;21.020;2022-10-16T00:51:11;100504.69;;;14.23;71.75
75747;BME280;64363;52.198;21.020;2022-10-16T00:53:37;100510.94;;;14.23;71.79
75747;BME280;64363;52.198;21.020;2022-10-16T00:56:03;100506.53;;;14.21;70.52
75747;BME280;64363;52.198;21.020;2022-10-16T00:58:29;100506.44;;;14.24;70.19
75747;BME280;64363;52.198;21.020;2022-10-16T01:00:54;100511.81;;;14.24;70.32
75747;BME280;64363;52.198;21.020;2022-10-16T01:03:26;100512.66;;;14.24;70.05
75747;BME280;64363;52.198;21.020;2022-10-16T01:09:22;100514.34;;;14.27;70.10
75747;BME280;64363;52.198;21.020;2022-10-16T01:14:52;100514.25;;;14.28;70.30
75747;BME280;64363;52.198;21.020;2022-10-16T01:17:25;100514.25;;;14.28;69.99
75747;BME280;64363;52.198;21.020;2022-10-16T01:28:13;100518.78;;;14.28;69.58
75747;BME280;64363;52.198;21.020;2022-10-16T01:30:42;100522.38;;;14.27;69.92
75747;BME280;64363;52.198;21.020;2022-10-16T01:33:16;100518.69;;;14.29;70.10
75747;BME280;64363;52.198;21.020;2022-10-16T01:35:46;100530.22;;;14.31;69.86
75747;BME280;64363;52.198;21.020;2022-10-16T01:38:20;100531.00;;;14.35;69.79
75747;BME280;64363;52.198;21.020;2022-10-16T01:40:55;100531.00;;;14.35;69.51
75747;BME280;64363;52.198;21.020;2022-10-16T01:43:33;100528.34;;;14.33;69.77
75747;BME280;64363;52.198;21.020;2022-10-16T01:46:01;100534.56;;;14.34;69.49
75747;BME280;64363;52.198;21.020;2022-10-16T01:48:28;100536.38;;;14.33;69.55
75747;BME280;64363;52.198;21.020;2022-10-16T01:51:03;100539.16;;;14.32;70.76
75747;BME280;64363;52.198;21.020;2022-10-16T01:53:31;100532.09;;;14.29;71.79
75747;BME280;64363;52.198;21.020;2022-10-16T01:55:59;100538.63;;;14.24;72.54
75747;BME280;64363;52.198;21.020;2022-10-16T01:58:27;100530.91;;;14.16;73.36
75747;BME280;64363;52.198;21.020;2022-10-16T02:00:56;100524.94;;;14.10;74.21
75747;BME280;64363;52.198;21.020;2022-10-16T02:03:22;100519.97;;;14.00;73.66
75747;BME280;64363;52.198;21.020;2022-10-16T02:05:53;100531.88;;;13.93;75.36
75747;BME280;64363;52.198;21.020;2022-10-16T02:08:21;100531.09;;;13.91;74.68
75747;BME280;64363;52.198;21.020;2022-10-16T02:10:48;100529.50;;;13.87;74.58
75747;BME280;64363;52.198;21.020;2022-10-16T02:13:25;100533.16;;;13.85;74.30
75747;BME280;64363;52.198;21.020;2022-10-16T02:15:53;100533.97;;;13.87;75.86
75747;BME280;64363;52.198;21.020;2022-10-16T02:18:19;100527.72;;;13.86;75.71
75747;BME280;64363;52.198;21.020;2022-10-16T02:23:29;100528.81;;;13.82;74.98
75747;BME280;64363;52.198;21.020;2022-10-16T02:25:56;100526.16;;;13.81;76.55
75747;BME280;64363;52.198;21.020;2022-10-16T02:28:28;100525.38;;;13.79;74.86
75747;BME280;64363;52.198;21.020;2022-10-16T02:31:01;100518.22;;;13.79;74.80
75747;BME280;64363;52.198;21.020;2022-10-16T02:33:29;100526.16;;;13.81;75.56
75747;BME280;64363;52.198;21.020;2022-10-16T02:35:57;100525.28;;;13.80;74.97
75747;BME280;64363;52.198;21.020;2022-10-16T02:38:23;100527.03;;;13.81;76.09
75747;BME280;64363;52.198;21.020;2022-10-16T02:40:50;100534.16;;;13.82;76.49
75747;BME280;64363;52.198;21.020;2022-10-16T02:43:16;100529.72;;;13.81;75.72
75747;BME280;64363;52.198;21.020;2022-10-16T02:45:42;100534.31;;;13.79;76.03
75747;BME280;64363;52.198;21.020;2022-10-16T02:48:07;100533.34;;;13.80;76.67
75747;BME280;64363;52.198;21.020;2022-10-16T02:50:33;100531.63;;;13.79;76.67
75747;BME280;64363;52.198;21.020;2022-10-16T02:52:59;100538.78;;;13.79;76.71
75747;BME280;64363;52.198;21.020;2022-10-16T02:55:25;100534.34;;;13.78;76.91
75747;BME280;64363;52.198;21.020;2022-10-16T02:57:51;100538.69;;;13.80;77.42
75747;BME280;64363;52.198;21.020;2022-10-16T03:00:17;100538.69;;;13.80;77.08
75747;BME280;64363;52.198;21.020;2022-10-16T03:02:44;100540.63;;;13.77;76.93
75747;BME280;64363;52.198;21.020;2022-10-16T03:05:10;100538.03;;;13.75;76.94
75747;BME280;64363;52.198;21.020;2022-10-16T03:07:36;100547.00;;;13.74;76.87
75747;BME280;64363;52.198;21.020;2022-10-16T03:10:02;100540.72;;;13.75;75.57
75747;BME280;64363;52.198;21.020;2022-10-16T03:12:28;100550.47;;;13.76;76.93
75747;BME280;64363;52.198;21.020;2022-10-16T03:14:55;100550.47;;;13.76;76.68
75747;BME280;64363;52.198;21.020;2022-10-16T03:17:22;100554.19;;;13.74;75.94
75747;BME280;64363;52.198;21.020;2022-10-16T03:19:48;100559.53;;;13.74;76.33
75747;BME280;64363;52.198;21.020;2022-10-16T03:22:14;100559.53;;;13.74;75.68
75747;BME280;64363;52.198;21.020;2022-10-16T03:24:40;100563.97;;;13.75;76.30
75747;BME280;64363;52.198;21.020;2022-10-16T03:27:06;100558.47;;;13.78;76.54
75747;BME280;64363;52.198;21.020;2022-10-16T03:29:32;100568.25;;;13.79;76.77
75747;BME280;64363;52.198;21.020;2022-10-16T03:31:59;100571.00;;;13.77;76.02
75747;BME280;64363;52.198;21.020;2022-10-16T03:34:24;100569.19;;;13.78;77.26
75747;BME280;64363;52.198;21.020;2022-10-16T03:36:51;100570.06;;;13.78;77.18
75747;BME280;64363;52.198;21.020;2022-10-16T03:39:17;100570.19;;;13.75;74.69
75747;BME280;64363;52.198;21.020;2022-10-16T03:41:43;100566.66;;;13.75;76.06
75747;BME280;64363;52.198;21.020;2022-10-16T03:44:09;100579.13;;;13.76;75.65
75747;BME280;64363;52.198;21.020;2022-10-16T03:46:35;100577.28;;;13.76;76.04
75747;BME280;64363;52.198;21.020;2022-10-16T03:49:00;100573.50;;;13.82;76.30
75747;BME280;64363;52.198;21.020;2022-10-16T03:51:26;100576.22;;;13.80;75.69
75747;BME280;64363;52.198;21.020;2022-10-16T03:53:52;100571.91;;;13.76;75.07
75747;BME280;64363;52.198;21.020;2022-10-16T03:56:18;100585.47;;;13.73;75.30
75747;BME280;64363;52.198;21.020;2022-10-16T03:58:44;100574.00;;;13.70;74.93
75747;BME280;64363;52.198;21.020;2022-10-16T04:01:10;100579.66;;;13.62;74.93
75747;BME280;64363;52.198;21.020;2022-10-16T04:03:35;100574.63;;;13.54;75.45
75747;BME280;64363;52.198;21.020;2022-10-16T04:06:01;100587.50;;;13.45;74.91
75747;BME280;64363;52.198;21.020;2022-10-16T04:08:27;100586.00;;;13.38;75.36
75747;BME280;64363;52.198;21.020;2022-10-16T04:10:53;100580.97;;;13.30;74.73
75747;BME280;64363;52.198;21.020;2022-10-16T04:13:18;100577.53;;;13.27;75.62
75747;BME280;64363;52.198;21.020;2022-10-16T04:15:45;100578.59;;;13.23;75.51
75747;BME280;64363;52.198;21.020;2022-10-16T04:18:11;100584.91;;;13.20;76.16
75747;BME280;64363;52.198;21.020;2022-10-16T04:20:37;100581.50;;;13.17;76.52
75747;BME280;64363;52.198;21.020;2022-10-16T04:23:03;100586.06;;;13.15;76.68
75747;BME280;64363;52.198;21.020;2022-10-16T04:25:30;100596.00;;;13.11;76.24
75747;BME280;64363;52.198;21.020;2022-10-16T04:27:56;100594.25;;;13.10;75.88
75747;BME280;64363;52.198;21.020;2022-10-16T04:30:22;100591.41;;;13.15;76.30
75747;BME280;64363;52.198;21.020;2022-10-16T04:32:49;100593.03;;;13.19;76.57
75747;BME280;64363;52.198;21.020;2022-10-16T04:35:18;100598.13;;;13.25;76.07
75747;BME280;64363;52.198;21.020;2022-10-16T04:37:44;100600.75;;;13.26;75.33
75747;BME280;64363;52.198;21.020;2022-10-16T04:40:10;100600.59;;;13.31;75.49
75747;BME280;64363;52.198;21.020;2022-10-16T04:42:36;100595.06;;;13.35;74.99
75747;BME280;64363;52.198;21.020;2022-10-16T04:45:03;100604.75;;;13.38;75.34
75747;BME280;64363;52.198;21.020;2022-10-16T04:47:28;100602.03;;;13.39;74.55
75747;BME280;64363;52.198;21.020;2022-10-16T04:49:54;100607.31;;;13.41;74.83
75747;BME280;64363;52.198;21.020;2022-10-16T04:52:20;100609.00;;;13.43;74.87
75747;BME280;64363;52.198;21.020;2022-10-16T04:54:47;100610.81;;;13.43;74.50
75747;BME280;64363;52.198;21.020;2022-10-16T04:57:12;100602.03;;;13.39;74.38
75747;BME280;64363;52.198;21.020;2022-10-16T04:59:38;100615.47;;;13.38;74.40
75747;BME280;64363;52.198;21.020;2022-10-16T05:02:04;100607.63;;;13.33;74.79
75747;BME280;64363;52.198;21.020;2022-10-16T05:04:30;100612.34;;;13.27;75.05
75747;BME280;64363;52.198;21.020;2022-10-16T05:06:55;100615.19;;;13.22;75.19
75747;BME280;64363;52.198;21.020;2022-10-16T05:09:21;100613.63;;;13.17;75.35
75747;BME280;64363;52.198;21.020;2022-10-16T05:11:47;100612.00;;;13.12;75.50
75747;BME280;64363;52.198;21.020;2022-10-16T05:14:13;100626.38;;;13.08;75.75
75747;BME280;64363;52.198;21.020;2022-10-16T05:16:38;100627.38;;;13.06;75.73
75747;BME280;64363;52.198;21.020;2022-10-16T05:19:04;100636.31;;;13.06;75.50
75747;BME280;64363;52.198;21.020;2022-10-16T05:21:30;100630.03;;;13.07;75.00
75747;BME280;64363;52.198;21.020;2022-10-16T05:23:56;100633.06;;;13.22;75.20
75747;BME280;64363;52.198;21.020;2022-10-16T05:26:21;100634.00;;;13.21;74.92
75747;BME280;64363;52.198;21.020;2022-10-16T05:28:49;100629.69;;;13.17;74.73
75747;BME280;64363;52.198;21.020;2022-10-16T05:31:14;100628.06;;;13.12;75.34
75747;BME280;64363;52.198;21.020;2022-10-16T05:33:40;100640.66;;;13.10;75.28
75747;BME280;64363;52.198;21.020;2022-10-16T05:36:08;100639.03;;;13.05;75.15
75747;BME280;64363;52.198;21.020;2022-10-16T05:38:35;100639.16;;;13.02;75.31
75747;BME280;64363;52.198;21.020;2022-10-16T05:41:02;100636.63;;;12.97;75.54
75747;BME280;64363;52.198;21.020;2022-10-16T05:43:28;100627.81;;;12.95;75.77
75747;BME280;64363;52.198;21.020;2022-10-16T05:45:56;100627.91;;;12.92;75.62
75747;BME280;64363;52.198;21.020;2022-10-16T05:48:23;100635.91;;;12.92;75.88
75747;BME280;64363;52.198;21.020;2022-10-16T05:50:48;100634.25;;;12.90;76.44
75747;BME280;64363;52.198;21.020;2022-10-16T05:53:21;100645.88;;;12.89;76.33
75747;BME280;64363;52.198;21.020;2022-10-16T05:55:55;100646.81;;;12.88;76.54
75747;BME280;64363;52.198;21.020;2022-10-16T05:58:22;100650.44;;;12.87;75.82
75747;BME280;64363;52.198;21.020;2022-10-16T06:03:21;100658.38;;;12.88;76.41
75747;BME280;64363;52.198;21.020;2022-10-16T06:05:46;100671.66;;;12.91;76.99
75747;BME280;64363;52.198;21.020;2022-10-16T06:08:12;100668.13;;;12.91;75.97
75747;BME280;64363;52.198;21.020;2022-10-16T06:10:37;100671.59;;;12.93;76.00
75747;BME280;64363;52.198;21.020;2022-10-16T06:13:03;100669.63;;;12.98;76.16
75747;BME280;64363;52.198;21.020;2022-10-16T06:15:29;100677.63;;;12.99;76.22
75747;BME280;64363;52.198;21.020;2022-10-16T06:17:55;100680.22;;;13.01;75.69
75747;BME280;64363;52.198;21.020;2022-10-16T06:20:20;100667.59;;;13.04;75.73
75747;BME280;64363;52.198;21.020;2022-10-16T06:22:46;100671.09;;;13.06;75.50
75747;BME280;64363;52.198;21.020;2022-10-16T06:25:12;100681.69;;;13.11;75.62
75747;BME280;64363;52.198;21.020;2022-10-16T06:27:39;100673.47;;;13.16;75.51
75747;BME280;64363;52.198;21.020;2022-10-16T06:30:06;100676.84;;;13.21;75.68
75747;BME280;64363;52.198;21.020;2022-10-16T06:32:32;100676.66;;;13.25;75.10
75747;BME280;64363;52.198;21.020;2022-10-16T06:34:58;100682.69;;;13.32;75.01
75747;BME280;64363;52.198;21.020;2022-10-16T06:37:24;100684.34;;;13.34;75.11
75747;BME280;64363;52.198;21.020;2022-10-16T06:39:50;100680.47;;;13.43;74.45
75747;BME280;64363;52.198;21.020;2022-10-16T06:42:18;100698.28;;;13.44;74.44
75747;BME280;64363;52.198;21.020;2022-10-16T06:44:44;100696.38;;;13.47;74.15
75747;BME280;64363;52.198;21.020;2022-10-16T06:47:10;100697.91;;;13.53;74.14
75747;BME280;64363;52.198;21.020;2022-10-16T06:49:36;100696.63;;;13.63;73.73
75747;BME280;64363;52.198;21.020;2022-10-16T06:52:02;100693.78;;;13.68;73.37
75747;BME280;64363;52.198;21.020;2022-10-16T06:54:28;100700.50;;;13.78;73.42
75747;BME280;64363;52.198;21.020;2022-10-16T06:56:54;100707.31;;;13.86;72.58
75747;BME280;64363;52.198;21.020;2022-10-16T06:59:20;100699.53;;;14.02;72.53
75747;BME280;64363;52.198;21.020;2022-10-16T07:01:46;100696.41;;;14.13;72.25
75747;BME280;64363;52.198;21.020;2022-10-16T07:04:12;100707.31;;;14.30;71.35
75747;BME280;64363;52.198;21.020;2022-10-16T07:06:38;100708.78;;;14.38;70.57
75747;BME280;64363;52.198;21.020;2022-10-16T07:09:05;100710.44;;;14.41;70.66
75747;BME280;64363;52.198;21.020;2022-10-16T07:11:32;100710.53;;;14.39;70.49
75747;BME280;64363;52.198;21.020;2022-10-16T07:13:58;100719.47;;;14.40;70.73
75747;BME280;64363;52.198;21.020;2022-10-16T07:16:29;100723.03;;;14.61;70.37
75747;BME280;64363;52.198;21.020;2022-10-16T07:18:56;100718.81;;;14.55;70.55
75747;BME280;64363;52.198;21.020;2022-10-16T07:21:27;100723.63;;;14.47;70.47
75747;BME280;64363;52.198;21.020;2022-10-16T07:23:59;100724.50;;;14.47;70.68
75747;BME280;64363;52.198;21.020;2022-10-16T07:26:27;100722.69;;;14.48;71.03
75747;BME280;64363;52.198;21.020;2022-10-16T07:28:53;100719.88;;;14.51;70.66
75747;BME280;64363;52.198;21.020;2022-10-16T07:31:20;100708.88;;;14.57;70.72
75747;BME280;64363;52.198;21.020;2022-10-16T07:33:47;100717.34;;;14.68;70.81
75747;BME280;64363;52.198;21.020;2022-10-16T07:36:15;100710.69;;;14.77;70.58
75747;BME280;64363;52.198;21.020;2022-10-16T07:38:41;100696.19;;;14.81;70.33
75747;BME280;64363;52.198;21.020;2022-10-16T07:41:19;100692.78;;;14.77;71.09
75747;BME280;64363;52.198;21.020;2022-10-16T07:43:49;100699.84;;;14.80;70.93
75747;BME280;64363;52.198;21.020;2022-10-16T07:46:16;100699.41;;;14.89;70.64
75747;BME280;64363;52.198;21.020;2022-10-16T07:48:42;100701.44;;;15.04;70.35
75747;BME280;64363;52.198;21.020;2022-10-16T07:51:11;100703.28;;;15.22;69.65
75747;BME280;64363;52.198;21.020;2022-10-16T07:53:37;100708.97;;;15.35;68.66
75747;BME280;64363;52.198;21.020;2022-10-16T07:56:05;100715.28;;;15.54;68.47
75747;BME280;64363;52.198;21.020;2022-10-16T07:58:32;100711.94;;;15.68;67.62
75747;BME280;64363;52.198;21.020;2022-10-16T08:00:59;100712.16;;;15.82;67.32
75747;BME280;64363;52.198;21.020;2022-10-16T08:03:27;100705.97;;;15.99;66.73
75747;BME280;64363;52.198;21.020;2022-10-16T08:05:53;100711.13;;;16.03;66.32
75747;BME280;64363;52.198;21.020;2022-10-16T08:08:19;100710.09;;;16.06;66.17
75747;BME280;64363;52.198;21.020;2022-10-16T08:10:45;100713.16;;;16.17;66.52
75747;BME280;64363;52.198;21.020;2022-10-16T08:13:11;100722.00;;;16.19;65.93
75747;BME280;64363;52.198;21.020;2022-10-16T08:15:38;100723.22;;;16.30;66.17
75747;BME280;64363;52.198;21.020;2022-10-16T08:18:04;100718.50;;;16.35;65.46
75747;BME280;64363;52.198;21.020;2022-10-16T08:20:32;100721.00;;;16.57;65.86
75747;BME280;64363;52.198;21.020;2022-10-16T08:22:59;100731.47;;;16.63;65.30
75747;BME280;64363;52.198;21.020;2022-10-16T08:25:25;100733.34;;;16.61;65.01
75747;BME280;64363;52.198;21.020;2022-10-16T08:27:51;100728.13;;;16.58;65.01
75747;BME280;64363;52.198;21.020;2022-10-16T08:30:20;100733.53;;;16.75;64.88
75747;BME280;64363;52.198;21.020;2022-10-16T08:32:46;100740.75;;;16.75;65.25
75747;BME280;64363;52.198;21.020;2022-10-16T08:35:13;100737.09;;;16.76;64.89
75747;BME280;64363;52.198;21.020;2022-10-16T08:37:39;100737.28;;;16.73;65.15
75747;BME280;64363;52.198;21.020;2022-10-16T08:40:13;100737.75;;;16.81;65.48
75747;BME280;64363;52.198;21.020;2022-10-16T08:45:44;100750.47;;;16.95;64.41
75747;BME280;64363;52.198;21.020;2022-10-16T08:48:30;100747.78;;;16.95;65.12
75747;BME280;64363;52.198;21.020;2022-10-16T08:51:02;100747.00;;;16.93;64.83
75747;BME280;64363;52.198;21.020;2022-10-16T08:53:31;100753.97;;;16.79;65.17
75747;BME280;64363;52.198;21.020;2022-10-16T08:56:02;100752.53;;;16.90;65.19
75747;BME280;64363;52.198;21.020;2022-10-16T08:58:29;100760.84;;;17.02;64.95
75747;BME280;64363;52.198;21.020;2022-10-16T09:00:57;100749.38;;;17.16;65.11
75747;BME280;64363;52.198;21.020;2022-10-16T09:12:03;100761.81;;;17.18;64.41
75747;BME280;64363;52.198;21.020;2022-10-16T09:15:06;100765.44;;;17.17;64.58
75747;BME280;64363;52.198;21.020;2022-10-16T09:22:46;100751.81;;;17.53;64.05
75747;BME280;64363;52.198;21.020;2022-10-16T09:25:17;100756.50;;;17.67;63.59
75747;BME280;64363;52.198;21.020;2022-10-16T09:27:48;100753.56;;;17.71;62.34
75747;BME280;64363;52.198;21.020;2022-10-16T09:30:19;100748.69;;;17.78;62.95
75747;BME280;64363;52.198;21.020;2022-10-16T09:32:48;100737.41;;;17.87;62.87
75747;BME280;64363;52.198;21.020;2022-10-16T09:35:21;100741.94;;;18.18;62.56
75747;BME280;64363;52.198;21.020;2022-10-16T09:37:50;100741.22;;;18.30;61.32
75747;BME280;64363;52.198;21.020;2022-10-16T09:40:31;100739.06;;;18.37;61.32
75747;BME280;64363;52.198;21.020;2022-10-16T09:43:07;100734.34;;;18.40;60.89
75747;BME280;64363;52.198;21.020;2022-10-16T09:45:42;100751.63;;;18.53;61.54
75747;BME280;64363;52.198;21.020;2022-10-16T09:48:12;100742.06;;;18.62;61.02
75747;BME280;64363;52.198;21.020;2022-10-16T09:50:38;100740.19;;;18.48;61.16
75747;BME280;64363;52.198;21.020;2022-10-16T09:53:08;100740.50;;;18.58;60.91
75747;BME280;64363;52.198;21.020;2022-10-16T09:55:36;100743.22;;;18.58;60.88
75747;BME280;64363;52.198;21.020;2022-10-16T09:58:02;100751.59;;;18.69;61.26
75747;BME280;64363;52.198;21.020;2022-10-16T10:00:27;100738.31;;;18.94;59.84
75747;BME280;64363;52.198;21.020;2022-10-16T10:02:55;100733.16;;;19.49;58.90
75747;BME280;64363;52.198;21.020;2022-10-16T10:07:57;100725.28;;;20.42;56.88
75747;BME280;64363;52.198;21.020;2022-10-16T10:12:52;100743.81;;;20.22;55.96
75747;BME280;64363;52.198;21.020;2022-10-16T10:15:18;100745.16;;;20.15;56.44
75747;BME280;64363;52.198;21.020;2022-10-16T10:17:49;100753.03;;;20.05;56.40
75747;BME280;64363;52.198;21.020;2022-10-16T10:20:30;100745.53;;;19.82;56.86
75747;BME280;64363;52.198;21.020;2022-10-16T10:22:58;100749.75;;;19.72;57.33
75747;BME280;64363;52.198;21.020;2022-10-16T10:28:21;100732.38;;;19.90;57.54
75747;BME280;64363;52.198;21.020;2022-10-16T10:33:48;100728.66;;;19.91;56.26
75747;BME280;64363;52.198;21.020;2022-10-16T10:36:38;100722.50;;;19.89;56.64
75747;BME280;64363;52.198;21.020;2022-10-16T10:39:20;100729.16;;;19.97;56.87
75747;BME280;64363;52.198;21.020;2022-10-16T10:50:21;100737.28;;;19.83;57.00
75747;BME280;64363;52.198;21.020;2022-10-16T11:01:55;100732.91;;;20.09;56.16
75747;BME280;64363;52.198;21.020;2022-10-16T11:07:35;100719.88;;;20.01;56.71
75747;BME280;64363;52.198;21.020;2022-10-16T11:10:12;100729.63;;;20.04;56.92
75747;BME280;64363;52.198;21.020;2022-10-16T11:12:43;100713.59;;;20.01;56.70
75747;BME280;64363;52.198;21.020;2022-10-16T11:15:32;100726.16;;;19.88;57.22
75747;BME280;64363;52.198;21.020;2022-10-16T11:18:06;100717.66;;;19.80;57.47
75747;BME280;64363;52.198;21.020;2022-10-16T11:20:38;100715.44;;;19.86;57.63
75747;BME280;64363;52.198;21.020;2022-10-16T11:26:22;100718.06;;;19.88;57.13
75747;BME280;64363;52.198;21.020;2022-10-16T11:28:53;100719.00;;;19.87;57.46
75747;BME280;64363;52.198;21.020;2022-10-16T11:31:45;100725.75;;;20.08;57.57
75747;BME280;64363;52.198;21.020;2022-10-16T11:34:29;100733.19;;;20.04;56.95
75747;BME280;64363;52.198;21.020;2022-10-16T11:39:30;100740.25;;;20.07;56.49
75747;BME280;64363;52.198;21.020;2022-10-16T11:44:59;100734.09;;;19.91;57.01
75747;BME280;64363;52.198;21.020;2022-10-16T11:50:20;100734.59;;;20.24;55.97
75747;BME280;64363;52.198;21.020;2022-10-16T11:52:55;100725.50;;;20.39;56.02
75747;BME280;64363;52.198;21.020;2022-10-16T11:55:45;100720.72;;;20.43;55.82
75747;BME280;64363;52.198;21.020;2022-10-16T12:01:25;100717.47;;;20.24;56.22
75747;BME280;64363;52.198;21.020;2022-10-16T12:06:44;100721.47;;;20.32;56.12
75747;BME280;64363;52.198;21.020;2022-10-16T12:09:20;100715.25;;;20.30;56.15
75747;BME280;64363;52.198;21.020;2022-10-16T12:11:48;100723.28;;;20.32;56.36
75747;BME280;64363;52.198;21.020;2022-10-16T12:16:57;100720.28;;;20.22;56.29
75747;BME280;64363;52.198;21.020;2022-10-16T12:19:27;100723.00;;;20.22;56.28
75747;BME280;64363;52.198;21.020;2022-10-16T12:21:56;100728.81;;;20.30;56.66
75747;BME280;64363;52.198;21.020;2022-10-16T12:24:36;100731.69;;;20.27;56.41
75747;BME280;64363;52.198;21.020;2022-10-16T12:27:05;100734.34;;;20.29;56.14
75747;BME280;64363;52.198;21.020;2022-10-16T12:29:38;100739.06;;;20.25;56.44
75747;BME280;64363;52.198;21.020;2022-10-16T12:32:21;100738.47;;;20.20;56.61
75747;BME280;64363;52.198;21.020;2022-10-16T12:34:49;100737.31;;;20.24;56.42
75747;BME280;64363;52.198;21.020;2022-10-16T12:37:21;100731.31;;;20.19;56.80
75747;BME280;64363;52.198;21.020;2022-10-16T12:39:49;100731.22;;;20.21;56.46
75747;BME280;64363;52.198;21.020;2022-10-16T12:42:42;100747.47;;;20.21;56.42
75747;BME280;64363;52.198;21.020;2022-10-16T12:45:30;100746.59;;;20.20;56.44
75747;BME280;64363;52.198;21.020;2022-10-16T12:47:57;100749.03;;;20.10;56.93
75747;BME280;64363;52.198;21.020;2022-10-16T12:50:37;100751.28;;;20.04;56.84
75747;BME280;64363;52.198;21.020;2022-10-16T12:53:18;100743.38;;;19.87;57.68
75747;BME280;64363;52.198;21.020;2022-10-16T12:55:52;100736.03;;;19.89;57.92
75747;BME280;64363;52.198;21.020;2022-10-16T12:58:43;100748.97;;;19.84;57.90
75747;BME280;64363;52.198;21.020;2022-10-16T13:15:16;100737.78;;;19.76;58.88
75747;BME280;64363;52.198;21.020;2022-10-16T13:20:46;100745.81;;;19.77;58.69
75747;BME280;64363;52.198;21.020;2022-10-16T13:23:33;100754.09;;;19.74;59.05
75747;BME280;64363;52.198;21.020;2022-10-16T13:26:26;100757.09;;;19.55;59.47
75747;BME280;64363;52.198;21.020;2022-10-16T13:28:58;100765.69;;;19.62;59.58
75747;BME280;64363;52.198;21.020;2022-10-16T13:31:25;100760.75;;;19.54;59.95
75747;BME280;64363;52.198;21.020;2022-10-16T13:34:01;100768.00;;;19.54;59.86
75747;BME280;64363;52.198;21.020;2022-10-16T13:36:35;100774.00;;;19.59;59.66
75747;BME280;64363;52.198;21.020;2022-10-16T13:41:36;100769.75;;;19.55;60.02
75747;BME280;64363;52.198;21.020;2022-10-16T13:44:02;100770.63;;;19.55;60.09
75747;BME280;64363;52.198;21.020;2022-10-16T13:46:27;100784.25;;;19.54;60.27
75747;BME280;64363;52.198;21.020;2022-10-16T13:49:05;100777.88;;;19.55;60.24
75747;BME280;64363;52.198;21.020;2022-10-16T13:51:31;100777.97;;;19.53;60.51
75747;BME280;64363;52.198;21.020;2022-10-16T13:53:58;100788.41;;;19.45;60.85
75747;BME280;64363;52.198;21.020;2022-10-16T13:56:29;100788.22;;;19.48;60.62
75747;BME280;64363;52.198;21.020;2022-10-16T13:59:04;100781.72;;;19.51;60.79
75747;BME280;64363;52.198;21.020;2022-10-16T14:01:34;100771.78;;;19.51;60.65
75747;BME280;64363;52.198;21.020;2022-10-16T14:04:06;100768.41;;;19.62;61.04
75747;BME280;64363;52.198;21.020;2022-10-16T14:06:33;100767.63;;;19.74;60.45
75747;BME280;64363;52.198;21.020;2022-10-16T14:09:06;100768.34;;;19.78;60.50
75747;BME280;64363;52.198;21.020;2022-10-16T14:11:33;100775.75;;;19.60;60.50
75747;BME280;64363;52.198;21.020;2022-10-16T14:14:01;100775.28;;;19.53;60.69
75747;BME280;64363;52.198;21.020;2022-10-16T14:16:30;100773.63;;;19.51;60.83
75747;BME280;64363;52.198;21.020;2022-10-16T14:19:02;100773.81;;;19.48;61.61
75747;BME280;64363;52.198;21.020;2022-10-16T14:21:29;100772.25;;;19.44;61.40
75747;BME280;64363;52.198;21.020;2022-10-16T14:23:55;100771.63;;;19.39;61.45
75747;BME280;64363;52.198;21.020;2022-10-16T14:26:28;100786.31;;;19.35;61.92
75747;BME280;64363;52.198;21.020;2022-10-16T14:29:29;100790.09;;;19.32;61.88
75747;BME280;64363;52.198;21.020;2022-10-16T14:32:03;100801.84;;;19.31;62.02
75747;BME280;64363;52.198;21.020;2022-10-16T14:34:34;100796.44;;;19.31;62.21
75747;BME280;64363;52.198;21.020;2022-10-16T14:37:08;100797.41;;;19.30;62.02
75747;BME280;64363;52.198;21.020;2022-10-16T14:39:36;100795.28;;;19.35;62.25
75747;BME280;64363;52.198;21.020;2022-10-16T14:42:02;100804.88;;;19.41;62.20
75747;BME280;64363;52.198;21.020;2022-10-16T14:44:31;100798.25;;;19.46;61.97